createdAt,value
2023-02-12T00:00:26.819Z,1030.25
2023-02-12T00:00:59.248Z,1030.22
2023-02-12T00:01:31.782Z,1030.22
2023-02-12T00:02:04.254Z,1030.23
2023-02-12T00:02:36.699Z,1030.24
2023-02-12T00:03:09.216Z,1030.23
2023-02-12T00:03:41.745Z,1030.22
2023-02-12T00:04:14.113Z,1030.23
2023-02-12T00:04:46.597Z,1030.24
2023-02-12T00:05:19.100Z,1030.22
2023-02-12T00:05:51.528Z,1030.24
2023-02-12T00:06:24.003Z,1030.23
2023-02-12T00:06:56.583Z,1030.24
2023-02-12T00:07:29.060Z,1030.24
2023-02-12T00:08:01.512Z,1030.22
2023-02-12T00:08:34.662Z,1030.23
2023-02-12T00:09:07.116Z,1030.22
2023-02-12T00:09:39.592Z,1030.22
2023-02-12T00:10:12.038Z,1030.22
2023-02-12T00:10:44.551Z,1030.22
2023-02-12T00:11:17.060Z,1030.21
2023-02-12T00:11:49.569Z,1030.22
2023-02-12T00:12:22.030Z,1030.22
2023-02-12T00:12:54.469Z,1030.23
2023-02-12T00:13:27.152Z,1030.21
2023-02-12T00:13:59.585Z,1030.22
2023-02-12T00:14:32.047Z,1030.23
2023-02-12T00:15:04.534Z,1030.23
2023-02-12T00:15:37.101Z,1030.23
2023-02-12T00:16:09.641Z,1030.24
2023-02-12T00:16:42.061Z,1030.24
2023-02-12T00:17:14.525Z,1030.26
2023-02-12T00:17:47.046Z,1030.25
2023-02-12T00:18:19.646Z,1030.26
2023-02-12T00:18:52.140Z,1030.26
2023-02-12T00:19:24.612Z,1030.25
2023-02-12T00:19:57.106Z,1030.25
2023-02-12T00:20:29.565Z,1030.26
2023-02-12T00:21:02.117Z,1030.25
2023-02-12T00:21:34.573Z,1030.26
2023-02-12T00:22:07.042Z,1030.25
2023-02-12T00:22:39.514Z,1030.25
2023-02-12T00:23:12.061Z,1030.25
2023-02-12T00:23:44.805Z,1030.24
2023-02-12T00:24:17.288Z,1030.24
2023-02-12T00:24:50.017Z,1030.23
2023-02-12T00:25:22.508Z,1030.23
2023-02-12T00:25:55.309Z,1030.22
2023-02-12T00:26:27.504Z,1030.22
2023-02-12T00:27:00.144Z,1030.21
2023-02-12T00:27:32.625Z,1030.20
2023-02-12T00:28:05.148Z,1030.20
2023-02-12T00:28:37.571Z,1030.21
2023-02-12T00:29:09.991Z,1030.21
2023-02-12T00:29:42.613Z,1030.22
2023-02-12T00:30:15.104Z,1030.21
2023-02-12T00:30:47.622Z,1030.20
2023-02-12T00:31:20.317Z,1030.22
2023-02-12T00:31:52.706Z,1030.23
2023-02-12T00:32:25.112Z,1030.25
2023-02-12T00:32:57.556Z,1030.26
2023-02-12T00:33:30.040Z,1030.27
2023-02-12T00:34:02.509Z,1030.28
2023-02-12T00:34:34.973Z,1030.27
2023-02-12T00:35:07.428Z,1030.28
2023-02-12T00:35:39.953Z,1030.27
2023-02-12T00:36:12.440Z,1030.28
2023-02-12T00:36:44.945Z,1030.26
2023-02-12T00:37:17.386Z,1030.27
2023-02-12T00:37:49.887Z,1030.27
2023-02-12T00:38:22.305Z,1030.28
2023-02-12T00:38:54.767Z,1030.29
2023-02-12T00:39:27.277Z,1030.27
2023-02-12T00:39:59.773Z,1030.28
2023-02-12T00:40:32.243Z,1030.27
2023-02-12T00:41:04.722Z,1030.28
2023-02-12T00:41:37.155Z,1030.28
2023-02-12T00:42:09.609Z,1030.27
2023-02-12T00:42:42.041Z,1030.28
2023-02-12T00:43:14.514Z,1030.27
2023-02-12T00:43:46.982Z,1030.30
2023-02-12T00:44:19.495Z,1030.30
2023-02-12T00:44:51.924Z,1030.29
2023-02-12T00:45:24.372Z,1030.30
2023-02-12T00:45:57.108Z,1030.29
2023-02-12T00:46:29.404Z,1030.31
2023-02-12T00:47:01.777Z,1030.30
2023-02-12T00:47:34.234Z,1030.31
2023-02-12T00:48:06.683Z,1030.31
2023-02-12T00:48:39.129Z,1030.31
2023-02-12T00:49:11.594Z,1030.30
2023-02-12T00:49:44.136Z,1030.31
2023-02-12T00:50:16.640Z,1030.30
2023-02-12T00:50:49.087Z,1030.30
2023-02-12T00:51:21.542Z,1030.32
2023-02-12T00:51:54.023Z,1030.33
2023-02-12T00:52:26.572Z,1030.33
2023-02-12T00:52:59.012Z,1030.33
2023-02-12T00:53:31.534Z,1030.32
2023-02-12T00:54:04.024Z,1030.32
2023-02-12T00:54:36.527Z,1030.33
2023-02-12T00:55:08.981Z,1030.32
2023-02-12T00:55:41.451Z,1030.32
2023-02-12T00:56:13.906Z,1030.31
2023-02-12T00:56:46.420Z,1030.31
2023-02-12T00:57:18.892Z,1030.29
2023-02-12T00:57:51.382Z,1030.29
2023-02-12T00:58:23.931Z,1030.29
2023-02-12T00:58:56.418Z,1030.30
2023-02-12T00:59:28.858Z,1030.28
2023-02-12T01:00:01.348Z,1030.29
2023-02-12T01:00:33.992Z,1030.29
2023-02-12T01:01:06.517Z,1030.30
2023-02-12T01:01:38.933Z,1030.30
2023-02-12T01:02:11.370Z,1030.30
2023-02-12T01:02:44.220Z,1030.27
2023-02-12T01:03:16.711Z,1030.31
2023-02-12T01:03:49.262Z,1030.29
2023-02-12T01:04:21.650Z,1030.31
2023-02-12T01:04:54.158Z,1030.31
2023-02-12T01:05:26.631Z,1030.29
2023-02-12T01:05:59.112Z,1030.30
2023-02-12T01:06:31.583Z,1030.32
2023-02-12T01:07:04.032Z,1030.31
2023-02-12T01:07:36.496Z,1030.31
2023-02-12T01:08:09.014Z,1030.31
2023-02-12T01:08:41.454Z,1030.31
2023-02-12T01:09:13.938Z,1030.33
2023-02-12T01:09:46.402Z,1030.34
2023-02-12T01:10:18.842Z,1030.34
2023-02-12T01:10:51.306Z,1030.36
2023-02-12T01:11:23.771Z,1030.37
2023-02-12T01:11:56.322Z,1030.37
2023-02-12T01:12:28.781Z,1030.38
2023-02-12T01:13:01.236Z,1030.38
2023-02-12T01:13:33.744Z,1030.37
2023-02-12T01:14:06.184Z,1030.38
2023-02-12T01:14:38.655Z,1030.39
2023-02-12T01:15:11.272Z,1030.39
2023-02-12T01:15:43.791Z,1030.39
2023-02-12T01:16:16.251Z,1030.39
2023-02-12T01:16:48.682Z,1030.39
2023-02-12T01:17:21.174Z,1030.40
2023-02-12T01:17:53.717Z,1030.40
2023-02-12T01:18:26.157Z,1030.41
2023-02-12T01:18:58.605Z,1030.41
2023-02-12T01:19:31.022Z,1030.41
2023-02-12T01:20:03.474Z,1030.41
2023-02-12T01:20:35.941Z,1030.39
2023-02-12T01:21:08.368Z,1030.39
2023-02-12T01:21:40.813Z,1030.38
2023-02-12T01:22:13.324Z,1030.39
2023-02-12T01:22:45.767Z,1030.38
2023-02-12T01:23:18.175Z,1030.38
2023-02-12T01:23:50.640Z,1030.37
2023-02-12T01:24:23.070Z,1030.35
2023-02-12T01:24:55.599Z,1030.35
2023-02-12T01:25:28.033Z,1030.35
2023-02-12T01:26:00.461Z,1030.35
2023-02-12T01:26:32.928Z,1030.35
2023-02-12T01:27:05.372Z,1030.35
2023-02-12T01:27:37.814Z,1030.34
2023-02-12T01:28:10.357Z,1030.35
2023-02-12T01:28:42.734Z,1030.35
2023-02-12T01:29:15.163Z,1030.35
2023-02-12T01:29:47.601Z,1030.35
2023-02-12T01:30:20.116Z,1030.34
2023-02-12T01:30:52.658Z,1030.36
2023-02-12T01:31:25.126Z,1030.35
2023-02-12T01:31:57.518Z,1030.35
2023-02-12T01:32:29.878Z,1030.36
2023-02-12T01:33:02.308Z,1030.37
2023-02-12T01:33:34.747Z,1030.36
2023-02-12T01:34:07.197Z,1030.36
2023-02-12T01:34:39.688Z,1030.36
2023-02-12T01:35:12.152Z,1030.36
2023-02-12T01:35:44.617Z,1030.36
2023-02-12T01:36:17.104Z,1030.36
2023-02-12T01:36:49.548Z,1030.37
2023-02-12T01:37:22.038Z,1030.37
2023-02-12T01:37:55.704Z,1030.38
2023-02-12T01:38:26.969Z,1030.36
2023-02-12T01:38:59.415Z,1030.36
2023-02-12T01:39:31.835Z,1030.36
2023-02-12T01:40:04.313Z,1030.36
2023-02-12T01:40:36.779Z,1030.35
2023-02-12T01:41:09.342Z,1030.35
2023-02-12T01:41:41.747Z,1030.36
2023-02-12T01:42:14.181Z,1030.35
2023-02-12T01:42:46.621Z,1030.36
2023-02-12T01:43:19.092Z,1030.35
2023-02-12T01:43:51.531Z,1030.33
2023-02-12T01:44:23.993Z,1030.33
2023-02-12T01:44:56.453Z,1030.32
2023-02-12T01:45:28.903Z,1030.33
2023-02-12T01:46:01.328Z,1030.32
2023-02-12T01:46:33.850Z,1030.31
2023-02-12T01:47:06.290Z,1030.32
2023-02-12T01:47:38.802Z,1030.32
2023-02-12T01:48:11.259Z,1030.30
2023-02-12T01:48:43.740Z,1030.29
2023-02-12T01:49:16.191Z,1030.28
2023-02-12T01:49:48.649Z,1030.28
2023-02-12T01:50:21.117Z,1030.27
2023-02-12T01:50:53.572Z,1030.26
2023-02-12T01:51:26.039Z,1030.25
2023-02-12T01:51:58.518Z,1030.23
2023-02-12T01:52:30.963Z,1030.22
2023-02-12T01:53:03.405Z,1030.21
2023-02-12T01:53:35.887Z,1030.20
2023-02-12T01:54:08.351Z,1030.19
2023-02-12T01:54:40.789Z,1030.20
2023-02-12T01:55:13.255Z,1030.19
2023-02-12T01:55:45.755Z,1030.20
2023-02-12T01:56:18.205Z,1030.19
2023-02-12T01:56:50.713Z,1030.21
2023-02-12T01:57:23.178Z,1030.20
2023-02-12T01:57:55.666Z,1030.20
2023-02-12T01:58:28.111Z,1030.21
2023-02-12T01:59:00.563Z,1030.20
2023-02-12T01:59:33.031Z,1030.22
2023-02-12T02:00:05.502Z,1030.21
2023-02-12T02:00:37.929Z,1030.21
2023-02-12T02:01:10.486Z,1030.18
2023-02-12T02:01:42.993Z,1030.19
2023-02-12T02:02:15.510Z,1030.20
2023-02-12T02:02:47.983Z,1030.19
2023-02-12T02:03:20.441Z,1030.17
2023-02-12T02:03:52.897Z,1030.17
2023-02-12T02:04:25.365Z,1030.18
2023-02-12T02:04:57.795Z,1030.19
2023-02-12T02:05:30.266Z,1030.18
2023-02-12T02:06:02.712Z,1030.18
2023-02-12T02:06:35.179Z,1030.19
2023-02-12T02:07:07.706Z,1030.18
2023-02-12T02:07:40.189Z,1030.18
2023-02-12T02:08:12.654Z,1030.19
2023-02-12T02:08:45.111Z,1030.21
2023-02-12T02:09:17.550Z,1030.23
2023-02-12T02:09:50.087Z,1030.24
2023-02-12T02:10:22.520Z,1030.21
2023-02-12T02:10:54.992Z,1030.22
2023-02-12T02:11:27.460Z,1030.24
2023-02-12T02:11:59.926Z,1030.24
2023-02-12T02:12:32.395Z,1030.24
2023-02-12T02:13:04.917Z,1030.25
2023-02-12T02:13:37.367Z,1030.25
2023-02-12T02:14:09.866Z,1030.26
2023-02-12T02:14:42.310Z,1030.25
2023-02-12T02:15:14.765Z,1030.26
2023-02-12T02:15:47.295Z,1030.26
2023-02-12T02:16:19.798Z,1030.23
2023-02-12T02:16:52.183Z,1030.23
2023-02-12T02:17:24.733Z,1030.22
2023-02-12T02:17:57.220Z,1030.21
2023-02-12T02:18:29.699Z,1030.21
2023-02-12T02:19:02.181Z,1030.20
2023-02-12T02:19:34.606Z,1030.20
2023-02-12T02:20:07.066Z,1030.18
2023-02-12T02:20:39.529Z,1030.18
2023-02-12T02:21:12.077Z,1030.17
2023-02-12T02:21:44.626Z,1030.18
2023-02-12T02:22:17.096Z,1030.17
2023-02-12T02:22:49.587Z,1030.16
2023-02-12T02:23:22.052Z,1030.16
2023-02-12T02:23:54.642Z,1030.15
2023-02-12T02:24:27.129Z,1030.16
2023-02-12T02:24:59.624Z,1030.18
2023-02-12T02:25:32.183Z,1030.18
2023-02-12T02:26:04.720Z,1030.19
2023-02-12T02:26:37.228Z,1030.17
2023-02-12T02:27:09.714Z,1030.17
2023-02-12T02:27:42.181Z,1030.15
2023-02-12T02:28:14.648Z,1030.15
2023-02-12T02:28:47.073Z,1030.16
2023-02-12T02:29:19.618Z,1030.16
2023-02-12T02:29:52.076Z,1030.14
2023-02-12T02:30:24.555Z,1030.15
2023-02-12T02:30:57.153Z,1030.14
2023-02-12T02:31:29.761Z,1030.11
2023-02-12T02:32:02.060Z,1030.13
2023-02-12T02:32:35.235Z,1030.13
2023-02-12T02:33:07.687Z,1030.12
2023-02-12T02:33:40.161Z,1030.13
2023-02-12T02:34:12.637Z,1030.10
2023-02-12T02:34:45.105Z,1030.10
2023-02-12T02:35:17.625Z,1030.09
2023-02-12T02:35:50.114Z,1030.08
2023-02-12T02:36:24.177Z,1030.08
2023-02-12T02:37:00.821Z,1030.05
2023-02-12T02:37:27.526Z,1030.04
2023-02-12T02:38:00.042Z,1030.03
2023-02-12T02:38:39.595Z,1030.02
2023-02-12T02:39:12.075Z,1030.01
2023-02-12T02:39:44.481Z,1030.01
2023-02-12T02:40:16.954Z,1030.00
2023-02-12T02:40:49.424Z,1029.99
2023-02-12T02:41:21.863Z,1030.00
2023-02-12T02:41:54.350Z,1030.01
2023-02-12T02:42:26.890Z,1030.00
2023-02-12T02:42:59.377Z,1030.00
2023-02-12T02:43:31.918Z,1030.00
2023-02-12T02:44:04.307Z,1030.01
2023-02-12T02:44:36.746Z,1030.01
2023-02-12T02:45:09.275Z,1030.01
2023-02-12T02:45:41.704Z,1030.02
2023-02-12T02:46:14.227Z,1030.02
2023-02-12T02:46:46.684Z,1030.01
2023-02-12T02:47:19.040Z,1030.03
2023-02-12T02:47:51.503Z,1030.04
2023-02-12T02:48:23.946Z,1030.02
2023-02-12T02:48:56.438Z,1030.03
2023-02-12T02:49:28.899Z,1030.03
2023-02-12T02:50:01.363Z,1030.04
2023-02-12T02:50:33.818Z,1030.04
2023-02-12T02:51:06.337Z,1030.03
2023-02-12T02:51:38.766Z,1030.04
2023-02-12T02:52:11.309Z,1030.05
2023-02-12T02:52:43.919Z,1030.04
2023-02-12T02:53:23.866Z,1030.04
2023-02-12T02:53:57.187Z,1030.02
2023-02-12T02:54:30.432Z,1030.03
2023-02-12T02:55:02.896Z,1030.03
2023-02-12T02:55:35.407Z,1030.01
2023-02-12T02:56:07.910Z,1030.00
2023-02-12T02:56:40.439Z,1030.01
2023-02-12T02:57:12.906Z,1030.01
2023-02-12T02:57:45.363Z,1030.02
2023-02-12T02:58:17.821Z,1030.01
2023-02-12T02:58:50.288Z,1030.01
2023-02-12T02:59:22.726Z,1030.04
2023-02-12T02:59:55.213Z,1030.02
2023-02-12T03:00:27.637Z,1030.04
2023-02-12T03:01:00.190Z,1030.04
2023-02-12T03:01:32.540Z,1030.04
2023-02-12T03:02:04.967Z,1030.03
2023-02-12T03:02:37.519Z,1030.05
2023-02-12T03:03:09.966Z,1030.05
2023-02-12T03:03:42.345Z,1030.06
2023-02-12T03:04:14.783Z,1030.06
2023-02-12T03:04:47.297Z,1030.07
2023-02-12T03:05:19.852Z,1030.06
2023-02-12T03:05:52.342Z,1030.05
2023-02-12T03:06:24.879Z,1030.04
2023-02-12T03:06:57.347Z,1030.03
2023-02-12T03:07:29.769Z,1030.04
2023-02-12T03:08:02.737Z,1030.05
2023-02-12T03:08:35.165Z,1030.04
2023-02-12T03:09:07.603Z,1030.04
2023-02-12T03:09:40.065Z,1030.04
2023-02-12T03:10:12.495Z,1030.04
2023-02-12T03:10:44.996Z,1030.02
2023-02-12T03:11:17.514Z,1030.03
2023-02-12T03:11:49.984Z,1030.02
2023-02-12T03:12:22.441Z,1030.03
2023-02-12T03:12:54.882Z,1029.99
2023-02-12T03:13:27.366Z,1029.99
2023-02-12T03:13:59.843Z,1030.00
2023-02-12T03:14:32.301Z,1029.99
2023-02-12T03:15:04.807Z,1029.99
2023-02-12T03:15:37.261Z,1030.01
2023-02-12T03:16:09.722Z,1030.01
2023-02-12T03:16:42.303Z,1030.01
2023-02-12T03:17:14.700Z,1030.01
2023-02-12T03:17:47.189Z,1030.02
2023-02-12T03:18:19.632Z,1030.02
2023-02-12T03:18:52.843Z,1030.03
2023-02-12T03:19:26.178Z,1030.03
2023-02-12T03:19:58.632Z,1030.03
2023-02-12T03:20:31.212Z,1030.04
2023-02-12T03:21:03.690Z,1030.05
2023-02-12T03:21:36.155Z,1030.05
2023-02-12T03:22:08.602Z,1030.05
2023-02-12T03:22:41.217Z,1030.04
2023-02-12T03:23:13.662Z,1030.04
2023-02-12T03:23:46.110Z,1030.04
2023-02-12T03:24:18.579Z,1030.05
2023-02-12T03:24:51.065Z,1030.06
2023-02-12T03:25:23.560Z,1030.07
2023-02-12T03:25:56.369Z,1030.07
2023-02-12T03:26:28.457Z,1030.06
2023-02-12T03:27:00.999Z,1030.05
2023-02-12T03:27:33.474Z,1030.07
2023-02-12T03:28:06.024Z,1030.06
2023-02-12T03:28:38.523Z,1030.06
2023-02-12T03:29:10.973Z,1030.06
2023-02-12T03:29:43.439Z,1030.06
2023-02-12T03:30:15.872Z,1030.04
2023-02-12T03:30:48.360Z,1030.07
2023-02-12T03:31:20.915Z,1030.08
2023-02-12T03:31:53.438Z,1030.08
2023-02-12T03:32:25.857Z,1030.09
2023-02-12T03:32:58.964Z,1030.08
2023-02-12T03:33:31.408Z,1030.10
2023-02-12T03:34:03.870Z,1030.10
2023-02-12T03:34:36.300Z,1030.10
2023-02-12T03:35:08.916Z,1030.10
2023-02-12T03:35:41.437Z,1030.10
2023-02-12T03:36:14.006Z,1030.11
2023-02-12T03:36:46.434Z,1030.11
2023-02-12T03:37:19.016Z,1030.12
2023-02-12T03:37:51.501Z,1030.10
2023-02-12T03:38:24.053Z,1030.11
2023-02-12T03:38:56.488Z,1030.12
2023-02-12T03:39:28.946Z,1030.11
2023-02-12T03:40:01.392Z,1030.12
2023-02-12T03:40:33.844Z,1030.11
2023-02-12T03:41:06.296Z,1030.11
2023-02-12T03:41:38.760Z,1030.13
2023-02-12T03:42:11.269Z,1030.15
2023-02-12T03:42:43.755Z,1030.16
2023-02-12T03:43:16.189Z,1030.16
2023-02-12T03:43:48.632Z,1030.16
2023-02-12T03:44:21.117Z,1030.16
2023-02-12T03:44:53.558Z,1030.19
2023-02-12T03:45:25.985Z,1030.18
2023-02-12T03:45:58.724Z,1030.20
2023-02-12T03:46:30.874Z,1030.21
2023-02-12T03:47:03.346Z,1030.19
2023-02-12T03:47:35.935Z,1030.20
2023-02-12T03:48:09.235Z,1030.22
2023-02-12T03:48:41.648Z,1030.21
2023-02-12T03:49:14.132Z,1030.21
2023-02-12T03:49:46.704Z,1030.21
2023-02-12T03:50:19.148Z,1030.22
2023-02-12T03:50:51.784Z,1030.21
2023-02-12T03:51:24.235Z,1030.21
2023-02-12T03:51:57.444Z,1030.23
2023-02-12T03:52:29.905Z,1030.21
2023-02-12T03:53:02.341Z,1030.20
2023-02-12T03:53:34.848Z,1030.22
2023-02-12T03:54:07.441Z,1030.21
2023-02-12T03:54:39.890Z,1030.22
2023-02-12T03:55:12.354Z,1030.23
2023-02-12T03:55:44.904Z,1030.23
2023-02-12T03:56:17.332Z,1030.23
2023-02-12T03:56:49.805Z,1030.25
2023-02-12T03:57:22.300Z,1030.26
2023-02-12T03:57:54.728Z,1030.25
2023-02-12T03:58:27.208Z,1030.27
2023-02-12T03:58:59.679Z,1030.26
2023-02-12T03:59:32.253Z,1030.26
2023-02-12T04:00:04.722Z,1030.25
2023-02-12T04:00:37.259Z,1030.26
2023-02-12T04:01:09.911Z,1030.26
2023-02-12T04:01:42.317Z,1030.26
2023-02-12T04:02:14.708Z,1030.26
2023-02-12T04:02:47.100Z,1030.27
2023-02-12T04:03:19.564Z,1030.26
2023-02-12T04:03:52.058Z,1030.27
2023-02-12T04:04:24.552Z,1030.24
2023-02-12T04:04:56.920Z,1030.24
2023-02-12T04:05:29.341Z,1030.25
2023-02-12T04:06:01.767Z,1030.24
2023-02-12T04:06:34.223Z,1030.25
2023-02-12T04:07:06.675Z,1030.25
2023-02-12T04:07:39.171Z,1030.26
2023-02-12T04:08:11.777Z,1030.27
2023-02-12T04:08:44.296Z,1030.27
2023-02-12T04:09:16.806Z,1030.28
2023-02-12T04:09:49.388Z,1030.28
2023-02-12T04:10:21.846Z,1030.29
2023-02-12T04:10:54.340Z,1030.29
2023-02-12T04:11:26.844Z,1030.30
2023-02-12T04:11:59.282Z,1030.33
2023-02-12T04:12:31.881Z,1030.32
2023-02-12T04:13:04.364Z,1030.33
2023-02-12T04:13:36.794Z,1030.33
2023-02-12T04:14:09.248Z,1030.37
2023-02-12T04:14:41.788Z,1030.35
2023-02-12T04:15:14.257Z,1030.36
2023-02-12T04:15:46.997Z,1030.35
2023-02-12T04:16:19.564Z,1030.37
2023-02-12T04:16:52.155Z,1030.36
2023-02-12T04:17:24.587Z,1030.35
2023-02-12T04:17:57.053Z,1030.36
2023-02-12T04:18:29.454Z,1030.35
2023-02-12T04:19:01.942Z,1030.35
2023-02-12T04:19:34.381Z,1030.33
2023-02-12T04:20:06.811Z,1030.33
2023-02-12T04:20:39.230Z,1030.33
2023-02-12T04:21:11.741Z,1030.33
2023-02-12T04:21:44.185Z,1030.33
2023-02-12T04:22:16.698Z,1030.32
2023-02-12T04:22:49.147Z,1030.33
2023-02-12T04:23:21.609Z,1030.33
2023-02-12T04:23:54.047Z,1030.33
2023-02-12T04:24:26.496Z,1030.33
2023-02-12T04:24:58.939Z,1030.34
2023-02-12T04:25:31.420Z,1030.36
2023-02-12T04:26:03.907Z,1030.36
2023-02-12T04:26:36.374Z,1030.37
2023-02-12T04:27:09.106Z,1030.39
2023-02-12T04:27:41.616Z,1030.40
2023-02-12T04:28:14.105Z,1030.38
2023-02-12T04:28:46.511Z,1030.40
2023-02-12T04:29:18.979Z,1030.40
2023-02-12T04:29:51.467Z,1030.40
2023-02-12T04:30:24.060Z,1030.39
2023-02-12T04:30:56.426Z,1030.41
2023-02-12T04:31:28.898Z,1030.40
2023-02-12T04:32:01.247Z,1030.40
2023-02-12T04:32:33.704Z,1030.41
2023-02-12T04:33:06.137Z,1030.41
2023-02-12T04:33:38.609Z,1030.39
2023-02-12T04:34:11.074Z,1030.39
2023-02-12T04:34:43.606Z,1030.38
2023-02-12T04:35:16.104Z,1030.39
2023-02-12T04:35:48.547Z,1030.41
2023-02-12T04:36:20.986Z,1030.42
2023-02-12T04:36:53.420Z,1030.40
2023-02-12T04:37:25.862Z,1030.43
2023-02-12T04:37:58.335Z,1030.44
2023-02-12T04:38:30.763Z,1030.44
2023-02-12T04:39:03.200Z,1030.45
2023-02-12T04:39:35.639Z,1030.45
2023-02-12T04:40:08.093Z,1030.47
2023-02-12T04:40:40.536Z,1030.44
2023-02-12T04:41:12.986Z,1030.44
2023-02-12T04:41:45.470Z,1030.43
2023-02-12T04:42:17.933Z,1030.43
2023-02-12T04:42:50.404Z,1030.43
2023-02-12T04:43:22.895Z,1030.41
2023-02-12T04:43:55.361Z,1030.42
2023-02-12T04:44:27.874Z,1030.43
2023-02-12T04:45:00.325Z,1030.44
2023-02-12T04:45:32.774Z,1030.44
2023-02-12T04:46:05.305Z,1030.46
2023-02-12T04:46:37.714Z,1030.46
2023-02-12T04:47:11.057Z,1030.47
2023-02-12T04:47:43.519Z,1030.48
2023-02-12T04:48:15.967Z,1030.47
2023-02-12T04:48:48.439Z,1030.47
2023-02-12T04:49:20.884Z,1030.46
2023-02-12T04:49:53.369Z,1030.46
2023-02-12T04:50:25.785Z,1030.45
2023-02-12T04:50:58.258Z,1030.48
2023-02-12T04:51:30.718Z,1030.47
2023-02-12T04:52:03.164Z,1030.50
2023-02-12T04:52:35.617Z,1030.52
2023-02-12T04:53:08.088Z,1030.52
2023-02-12T04:53:40.572Z,1030.54
2023-02-12T04:54:13.054Z,1030.56
2023-02-12T04:54:45.502Z,1030.57
2023-02-12T04:55:17.924Z,1030.56
2023-02-12T04:55:50.377Z,1030.56
2023-02-12T04:56:22.854Z,1030.55
2023-02-12T04:56:55.323Z,1030.56
2023-02-12T04:57:27.771Z,1030.54
2023-02-12T04:58:00.203Z,1030.55
2023-02-12T04:58:32.743Z,1030.56
2023-02-12T04:59:05.203Z,1030.56
2023-02-12T04:59:37.614Z,1030.57
2023-02-12T05:00:10.052Z,1030.57
2023-02-12T05:00:42.583Z,1030.57
2023-02-12T05:01:15.094Z,1030.59
2023-02-12T05:01:47.554Z,1030.58
2023-02-12T05:02:20.004Z,1030.58
2023-02-12T05:02:52.464Z,1030.58
2023-02-12T05:03:24.918Z,1030.59
2023-02-12T05:03:57.394Z,1030.60
2023-02-12T05:04:29.864Z,1030.61
2023-02-12T05:05:02.337Z,1030.60
2023-02-12T05:05:34.782Z,1030.60
2023-02-12T05:06:07.217Z,1030.61
2023-02-12T05:06:39.708Z,1030.62
2023-02-12T05:07:12.166Z,1030.62
2023-02-12T05:07:44.636Z,1030.62
2023-02-12T05:08:17.080Z,1030.62
2023-02-12T05:08:49.556Z,1030.63
2023-02-12T05:09:22.011Z,1030.64
2023-02-12T05:09:54.454Z,1030.64
2023-02-12T05:10:26.907Z,1030.64
2023-02-12T05:10:59.368Z,1030.64
2023-02-12T05:11:31.828Z,1030.64
2023-02-12T05:12:04.294Z,1030.65
2023-02-12T05:12:36.739Z,1030.65
2023-02-12T05:13:09.193Z,1030.65
2023-02-12T05:13:41.656Z,1030.65
2023-02-12T05:14:14.178Z,1030.65
2023-02-12T05:14:46.619Z,1030.66
2023-02-12T05:15:26.659Z,1030.66
2023-02-12T05:15:59.274Z,1030.65
2023-02-12T05:16:31.611Z,1030.65
2023-02-12T05:17:04.073Z,1030.65
2023-02-12T05:17:36.532Z,1030.66
2023-02-12T05:18:08.970Z,1030.65
2023-02-12T05:18:41.425Z,1030.65
2023-02-12T05:19:13.914Z,1030.66
2023-02-12T05:19:46.472Z,1030.67
2023-02-12T05:20:18.933Z,1030.66
2023-02-12T05:20:51.404Z,1030.67
2023-02-12T05:21:23.868Z,1030.69
2023-02-12T05:21:56.300Z,1030.68
2023-02-12T05:22:28.772Z,1030.69
2023-02-12T05:23:01.222Z,1030.68
2023-02-12T05:23:33.742Z,1030.70
2023-02-12T05:24:06.218Z,1030.70
2023-02-12T05:24:38.699Z,1030.72
2023-02-12T05:25:11.171Z,1030.72
2023-02-12T05:25:43.645Z,1030.73
2023-02-12T05:26:16.183Z,1030.74
2023-02-12T05:26:48.823Z,1030.75
2023-02-12T05:27:21.158Z,1030.76
2023-02-12T05:27:53.645Z,1030.76
2023-02-12T05:28:27.137Z,1030.76
2023-02-12T05:28:59.567Z,1030.75
2023-02-12T05:29:32.016Z,1030.77
2023-02-12T05:30:04.564Z,1030.75
2023-02-12T05:30:37.042Z,1030.74
2023-02-12T05:31:09.582Z,1030.75
2023-02-12T05:31:42.013Z,1030.74
2023-02-12T05:32:14.566Z,1030.74
2023-02-12T05:32:46.900Z,1030.75
2023-02-12T05:33:19.393Z,1030.74
2023-02-12T05:33:51.904Z,1030.74
2023-02-12T05:34:24.339Z,1030.73
2023-02-12T05:34:56.780Z,1030.71
2023-02-12T05:35:29.236Z,1030.71
2023-02-12T05:36:01.656Z,1030.71
2023-02-12T05:36:34.207Z,1030.70
2023-02-12T05:37:06.656Z,1030.69
2023-02-12T05:37:39.110Z,1030.69
2023-02-12T05:38:11.576Z,1030.69
2023-02-12T05:38:44.075Z,1030.69
2023-02-12T05:39:16.504Z,1030.68
2023-02-12T05:39:48.947Z,1030.69
2023-02-12T05:40:21.405Z,1030.69
2023-02-12T05:40:53.863Z,1030.70
2023-02-12T05:41:26.325Z,1030.70
2023-02-12T05:41:58.750Z,1030.70
2023-02-12T05:42:32.014Z,1030.70
2023-02-12T05:43:04.556Z,1030.71
2023-02-12T05:43:36.987Z,1030.73
2023-02-12T05:44:09.482Z,1030.75
2023-02-12T05:44:41.917Z,1030.74
2023-02-12T05:45:14.404Z,1030.75
2023-02-12T05:45:46.875Z,1030.75
2023-02-12T05:46:19.432Z,1030.75
2023-02-12T05:46:51.915Z,1030.76
2023-02-12T05:47:24.273Z,1030.76
2023-02-12T05:47:56.749Z,1030.76
2023-02-12T05:48:29.172Z,1030.75
2023-02-12T05:49:01.758Z,1030.74
2023-02-12T05:49:34.193Z,1030.74
2023-02-12T05:50:06.654Z,1030.74
2023-02-12T05:50:39.127Z,1030.73
2023-02-12T05:51:11.568Z,1030.74
2023-02-12T05:51:44.094Z,1030.75
2023-02-12T05:52:16.550Z,1030.75
2023-02-12T05:52:49.058Z,1030.75
2023-02-12T05:53:21.502Z,1030.74
2023-02-12T05:53:53.971Z,1030.74
2023-02-12T05:54:26.417Z,1030.75
2023-02-12T05:54:58.878Z,1030.74
2023-02-12T05:55:31.371Z,1030.74
2023-02-12T05:56:03.879Z,1030.72
2023-02-12T05:56:36.317Z,1030.73
2023-02-12T05:57:08.750Z,1030.72
2023-02-12T05:57:41.211Z,1030.72
2023-02-12T05:58:15.760Z,1030.73
2023-02-12T05:58:46.114Z,1030.72
2023-02-12T05:59:18.562Z,1030.73
2023-02-12T05:59:51.035Z,1030.72
2023-02-12T06:00:23.477Z,1030.72
2023-02-12T06:00:55.941Z,1030.73
2023-02-12T06:01:28.389Z,1030.76
2023-02-12T06:02:00.863Z,1030.75
2023-02-12T06:02:33.319Z,1030.76
2023-02-12T06:03:05.758Z,1030.75
2023-02-12T06:03:38.207Z,1030.76
2023-02-12T06:04:10.861Z,1030.75
2023-02-12T06:04:43.211Z,1030.75
2023-02-12T06:05:15.660Z,1030.73
2023-02-12T06:05:48.096Z,1030.72
2023-02-12T06:06:20.564Z,1030.73
2023-02-12T06:06:52.995Z,1030.73
2023-02-12T06:07:25.466Z,1030.74
2023-02-12T06:07:57.968Z,1030.73
2023-02-12T06:08:30.448Z,1030.73
2023-02-12T06:09:02.875Z,1030.74
2023-02-12T06:09:35.337Z,1030.71
2023-02-12T06:10:07.845Z,1030.71
2023-02-12T06:10:40.320Z,1030.72
2023-02-12T06:11:12.751Z,1030.73
2023-02-12T06:11:45.181Z,1030.73
2023-02-12T06:12:17.646Z,1030.75
2023-02-12T06:12:50.153Z,1030.74
2023-02-12T06:13:22.712Z,1030.75
2023-02-12T06:13:55.474Z,1030.76
2023-02-12T06:14:29.628Z,1030.75
2023-02-12T06:15:00.547Z,1030.74
2023-02-12T06:15:33.049Z,1030.75
2023-02-12T06:16:05.552Z,1030.76
2023-02-12T06:16:38.061Z,1030.76
2023-02-12T06:17:10.545Z,1030.77
2023-02-12T06:17:43.019Z,1030.78
2023-02-12T06:18:15.477Z,1030.77
2023-02-12T06:18:47.902Z,1030.78
2023-02-12T06:19:20.384Z,1030.78
2023-02-12T06:19:52.822Z,1030.76
2023-02-12T06:20:25.343Z,1030.77
2023-02-12T06:20:57.777Z,1030.77
2023-02-12T06:21:30.224Z,1030.78
2023-02-12T06:22:02.677Z,1030.77
2023-02-12T06:22:35.135Z,1030.77
2023-02-12T06:23:07.601Z,1030.77
2023-02-12T06:23:40.155Z,1030.77
2023-02-12T06:24:12.608Z,1030.78
2023-02-12T06:24:45.058Z,1030.77
2023-02-12T06:25:17.520Z,1030.77
2023-02-12T06:25:50.028Z,1030.78
2023-02-12T06:26:22.746Z,1030.77
2023-02-12T06:26:55.202Z,1030.78
2023-02-12T06:27:27.672Z,1030.77
2023-02-12T06:28:00.220Z,1030.76
2023-02-12T06:28:32.727Z,1030.77
2023-02-12T06:29:05.135Z,1030.78
2023-02-12T06:29:37.618Z,1030.78
2023-02-12T06:30:10.082Z,1030.79
2023-02-12T06:30:42.621Z,1030.78
2023-02-12T06:31:15.077Z,1030.79
2023-02-12T06:31:47.606Z,1030.80
2023-02-12T06:32:19.976Z,1030.79
2023-02-12T06:32:52.396Z,1030.79
2023-02-12T06:33:24.867Z,1030.79